sensor_id;sensor_type;location;lat;lon;timestamp;pressure;altitude;pressure_sealevel;temperature;humidity
21153;BME280;10734;44.792;20.482;2023-03-31T06:20:04;99761.41;;;14.12;nan
21153;BME280;10734;44.792;20.482;2023-03-31T06:22:45;99762.03;;;14.16;nan
21153;BME280;10734;44.792;20.482;2023-03-31T06:25:12;99756.09;;;14.35;nan
21153;BME280;10734;44.792;20.482;2023-03-31T06:27:38;99750.59;;;14.48;nan
21153;BME280;10734;44.792;20.482;2023-03-31T06:30:05;99758.53;;;14.51;nan
21153;BME280;10734;44.792;20.482;2023-03-31T06:32:32;99760.66;;;14.70;nan
21153;BME280;10734;44.792;20.482;2023-03-31T06:34:59;99765.75;;;14.85;nan
21153;BME280;10734;44.792;20.482;2023-03-31T06:37:25;99765.38;;;15.01;nan
21153;BME280;10734;44.792;20.482;2023-03-31T06:39:52;99761.72;;;15.02;nan
21153;BME280;10734;44.792;20.482;2023-03-31T06:42:19;99758.25;;;14.89;nan
21153;BME280;10734;44.792;20.482;2023-03-31T06:44:45;99757.25;;;14.90;nan
21153;BME280;10734;44.792;20.482;2023-03-31T06:47:13;99764.66;;;14.88;nan
21153;BME280;10734;44.792;20.482;2023-03-31T06:49:41;99763.53;;;14.90;nan
21153;BME280;10734;44.792;20.482;2023-03-31T06:52:09;99769.94;;;14.78;nan
21153;BME280;10734;44.792;20.482;2023-03-31T06:54:37;99771.16;;;14.85;nan
21153;BME280;10734;44.792;20.482;2023-03-31T06:57:05;99766.75;;;14.84;nan
21153;BME280;10734;44.792;20.482;2023-03-31T06:59:35;99781.25;;;14.72;nan
21153;BME280;10734;44.792;20.482;2023-03-31T07:02:02;99776.69;;;14.84;nan
21153;BME280;10734;44.792;20.482;2023-03-31T07:04:28;99768.81;;;14.81;nan
21153;BME280;10734;44.792;20.482;2023-03-31T07:07:00;99771.03;;;14.76;nan
21153;BME280;10734;44.792;20.482;2023-03-31T07:09:28;99777.31;;;14.87;nan
21153;BME280;10734;44.792;20.482;2023-03-31T07:11:55;99775.50;;;14.88;nan
21153;BME280;10734;44.792;20.482;2023-03-31T07:14:22;99782.41;;;14.92;nan
21153;BME280;10734;44.792;20.482;2023-03-31T07:16:49;99776.97;;;15.03;nan
21153;BME280;10734;44.792;20.482;2023-03-31T07:19:16;99791.41;;;15.04;nan
21153;BME280;10734;44.792;20.482;2023-03-31T07:21:43;99776.34;;;14.88;nan
21153;BME280;10734;44.792;20.482;2023-03-31T07:24:10;99782.50;;;14.90;nan
21153;BME280;10734;44.792;20.482;2023-03-31T07:26:37;99782.66;;;15.00;nan
21153;BME280;10734;44.792;20.482;2023-03-31T07:29:03;99783.38;;;14.91;nan
21153;BME280;10734;44.792;20.482;2023-03-31T07:31:30;99790.78;;;14.89;nan
21153;BME280;10734;44.792;20.482;2023-03-31T07:33:57;99786.50;;;15.09;nan
21153;BME280;10734;44.792;20.482;2023-03-31T07:36:24;99786.63;;;15.30;nan
21153;BME280;10734;44.792;20.482;2023-03-31T07:38:50;99785.91;;;15.39;nan
21153;BME280;10734;44.792;20.482;2023-03-31T07:41:20;99791.94;;;15.43;nan
21153;BME280;10734;44.792;20.482;2023-03-31T07:43:49;99788.34;;;15.53;nan
21153;BME280;10734;44.792;20.482;2023-03-31T07:46:19;99778.75;;;15.49;nan
21153;BME280;10734;44.792;20.482;2023-03-31T07:48:46;99780.47;;;15.50;nan
21153;BME280;10734;44.792;20.482;2023-03-31T07:51:15;99782.06;;;15.75;nan
21153;BME280;10734;44.792;20.482;2023-03-31T07:53:44;99782.22;;;16.06;nan
21153;BME280;10734;44.792;20.482;2023-03-31T07:56:11;99780.75;;;16.02;nan
21153;BME280;10734;44.792;20.482;2023-03-31T07:58:39;99776.44;;;16.11;nan
21153;BME280;10734;44.792;20.482;2023-03-31T08:01:07;99783.84;;;16.08;nan
21153;BME280;10734;44.792;20.482;2023-03-31T08:03:35;99787.41;;;16.09;nan
21153;BME280;10734;44.792;20.482;2023-03-31T08:06:03;99776.44;;;16.64;nan
21153;BME280;10734;44.792;20.482;2023-03-31T08:08:31;99773.47;;;16.67;nan
21153;BME280;10734;44.792;20.482;2023-03-31T08:10:59;99774.72;;;16.63;nan
21153;BME280;10734;44.792;20.482;2023-03-31T08:13:28;99769.63;;;16.69;nan
21153;BME280;10734;44.792;20.482;2023-03-31T08:15:56;99770.66;;;16.89;nan
21153;BME280;10734;44.792;20.482;2023-03-31T08:18:24;99754.72;;;17.06;nan
21153;BME280;10734;44.792;20.482;2023-03-31T08:20:52;99759.94;;;17.59;nan
21153;BME280;10734;44.792;20.482;2023-03-31T08:23:20;99752.31;;;17.93;nan
21153;BME280;10734;44.792;20.482;2023-03-31T08:25:47;99763.91;;;17.85;nan
21153;BME280;10734;44.792;20.482;2023-03-31T08:28:15;99753.75;;;17.87;nan
21153;BME280;10734;44.792;20.482;2023-03-31T08:30:45;99746.00;;;17.83;nan
21153;BME280;10734;44.792;20.482;2023-03-31T08:33:14;99743.94;;;17.75;nan
21153;BME280;10734;44.792;20.482;2023-03-31T08:35:42;99746.03;;;18.02;nan
21153;BME280;10734;44.792;20.482;2023-03-31T08:38:10;99736.63;;;17.76;nan
21153;BME280;10734;44.792;20.482;2023-03-31T08:40:38;99729.91;;;17.80;nan
21153;BME280;10734;44.792;20.482;2023-03-31T08:43:09;99725.06;;;17.93;nan
21153;BME280;10734;44.792;20.482;2023-03-31T08:45:40;99711.59;;;18.40;nan
21153;BME280;10734;44.792;20.482;2023-03-31T08:51:17;99720.22;;;18.06;nan
21153;BME280;10734;44.792;20.482;2023-03-31T08:53:51;99708.72;;;18.61;nan
21153;BME280;10734;44.792;20.482;2023-03-31T08:56:22;99701.97;;;18.65;nan
21153;BME280;10734;44.792;20.482;2023-03-31T08:58:53;99711.94;;;18.17;nan
21153;BME280;10734;44.792;20.482;2023-03-31T09:12:05;99683.41;;;19.25;nan
21153;BME280;10734;44.792;20.482;2023-03-31T09:14:41;99677.84;;;18.70;nan
21153;BME280;10734;44.792;20.482;2023-03-31T09:17:44;99664.94;;;19.19;nan
21153;BME280;10734;44.792;20.482;2023-03-31T09:20:04;99661.88;;;19.50;nan
21153;BME280;10734;44.792;20.482;2023-03-31T09:22:37;99658.31;;;19.12;nan
21153;BME280;10734;44.792;20.482;2023-03-31T09:27:52;99636.34;;;19.59;nan
21153;BME280;10734;44.792;20.482;2023-03-31T09:30:24;99641.41;;;19.64;nan
21153;BME280;10734;44.792;20.482;2023-03-31T09:32:52;99639.94;;;20.05;nan
21153;BME280;10734;44.792;20.482;2023-03-31T09:35:23;99638.38;;;19.84;nan
21153;BME280;10734;44.792;20.482;2023-03-31T09:37:54;99638.38;;;19.11;nan
21153;BME280;10734;44.792;20.482;2023-03-31T09:40:23;99644.59;;;19.31;nan
21153;BME280;10734;44.792;20.482;2023-03-31T09:42:58;99632.56;;;19.24;nan
21153;BME280;10734;44.792;20.482;2023-03-31T09:45:26;99636.19;;;19.43;nan
21153;BME280;10734;44.792;20.482;2023-03-31T09:47:57;99634.16;;;19.72;nan
21153;BME280;10734;44.792;20.482;2023-03-31T09:50:26;99625.75;;;19.56;nan
21153;BME280;10734;44.792;20.482;2023-03-31T09:52:55;99625.06;;;19.54;nan
21153;BME280;10734;44.792;20.482;2023-03-31T09:55:25;99637.34;;;19.68;nan
21153;BME280;10734;44.792;20.482;2023-03-31T10:00:39;99607.44;;;20.02;nan
21153;BME280;10734;44.792;20.482;2023-03-31T10:03:09;99609.28;;;20.19;nan
21153;BME280;10734;44.792;20.482;2023-03-31T10:05:48;99608.56;;;20.35;nan
21153;BME280;10734;44.792;20.482;2023-03-31T10:10:50;99602.09;;;21.31;nan
21153;BME280;10734;44.792;20.482;2023-03-31T10:13:22;99593.44;;;21.60;nan
21153;BME280;10734;44.792;20.482;2023-03-31T10:15:54;99589.50;;;21.12;nan
21153;BME280;10734;44.792;20.482;2023-03-31T10:18:34;99587.44;;;20.71;nan
21153;BME280;10734;44.792;20.482;2023-03-31T10:21:03;99582.91;;;20.88;nan
21153;BME280;10734;44.792;20.482;2023-03-31T10:23:31;99574.66;;;21.22;nan
21153;BME280;10734;44.792;20.482;2023-03-31T10:25:59;99562.59;;;20.99;nan
21153;BME280;10734;44.792;20.482;2023-03-31T10:28:30;99560.50;;;20.85;nan
21153;BME280;10734;44.792;20.482;2023-03-31T10:30:57;99568.69;;;20.85;nan
21153;BME280;10734;44.792;20.482;2023-03-31T10:33:30;99555.91;;;21.36;nan
21153;BME280;10734;44.792;20.482;2023-03-31T10:36:01;99564.19;;;21.10;nan
21153;BME280;10734;44.792;20.482;2023-03-31T10:38:36;99553.34;;;20.92;nan
21153;BME280;10734;44.792;20.482;2023-03-31T10:41:06;99538.44;;;20.86;nan
21153;BME280;10734;44.792;20.482;2023-03-31T10:43:36;99546.03;;;21.92;nan
21153;BME280;10734;44.792;20.482;2023-03-31T10:46:03;99551.41;;;20.50;nan
21153;BME280;10734;44.792;20.482;2023-03-31T10:48:41;99543.16;;;20.42;nan
21153;BME280;10734;44.792;20.482;2023-03-31T10:53:46;99514.16;;;21.58;nan
21153;BME280;10734;44.792;20.482;2023-03-31T11:12:11;99478.09;;;20.27;nan
21153;BME280;10734;44.792;20.482;2023-03-31T11:17:48;99455.03;;;21.07;nan
21153;BME280;10734;44.792;20.482;2023-03-31T11:23:19;99432.69;;;22.80;nan
21153;BME280;10734;44.792;20.482;2023-03-31T11:39:16;99391.53;;;21.85;nan
21153;BME280;10734;44.792;20.482;2023-03-31T11:41:46;99382.16;;;22.27;nan
21153;BME280;10734;44.792;20.482;2023-03-31T11:44:15;99378.34;;;22.67;nan
21153;BME280;10734;44.792;20.482;2023-03-31T11:54:15;99357.03;;;24.65;nan
21153;BME280;10734;44.792;20.482;2023-03-31T11:56:43;99351.63;;;24.71;nan
21153;BME280;10734;44.792;20.482;2023-03-31T11:59:13;99347.03;;;24.78;nan
21153;BME280;10734;44.792;20.482;2023-03-31T12:01:50;99331.09;;;24.52;nan
21153;BME280;10734;44.792;20.482;2023-03-31T12:04:38;99335.50;;;23.35;nan
21153;BME280;10734;44.792;20.482;2023-03-31T12:07:28;99319.38;;;23.47;nan
21153;BME280;10734;44.792;20.482;2023-03-31T12:12:47;99306.22;;;23.42;nan
21153;BME280;10734;44.792;20.482;2023-03-31T12:17:44;99317.66;;;22.93;nan
21153;BME280;10734;44.792;20.482;2023-03-31T12:20:13;99308.47;;;22.78;nan
21153;BME280;10734;44.792;20.482;2023-03-31T12:22:44;99309.22;;;22.95;nan
21153;BME280;10734;44.792;20.482;2023-03-31T12:25:13;99312.59;;;23.57;nan
21153;BME280;10734;44.792;20.482;2023-03-31T12:27:42;99315.75;;;23.69;nan
21153;BME280;10734;44.792;20.482;2023-03-31T12:39:09;99299.56;;;22.76;nan
21153;BME280;10734;44.792;20.482;2023-03-31T12:52:17;99277.34;;;23.61;nan
21153;BME280;10734;44.792;20.482;2023-03-31T12:57:20;99263.25;;;23.11;nan
21153;BME280;10734;44.792;20.482;2023-03-31T13:02:33;99255.47;;;24.70;nan
21153;BME280;10734;44.792;20.482;2023-03-31T13:05:39;99245.41;;;25.33;nan
21153;BME280;10734;44.792;20.482;2023-03-31T13:07:47;99243.84;;;25.17;nan
21153;BME280;10734;44.792;20.482;2023-03-31T13:15:29;99232.22;;;22.65;nan
21153;BME280;10734;44.792;20.482;2023-03-31T13:18:00;99231.78;;;22.99;nan
21153;BME280;10734;44.792;20.482;2023-03-31T13:20:35;99228.41;;;22.89;nan
21153;BME280;10734;44.792;20.482;2023-03-31T13:23:04;99211.00;;;23.79;nan
21153;BME280;10734;44.792;20.482;2023-03-31T13:25:41;99208.84;;;24.47;nan
21153;BME280;10734;44.792;20.482;2023-03-31T13:30:53;99206.47;;;23.42;nan
21153;BME280;10734;44.792;20.482;2023-03-31T13:33:25;99188.81;;;23.95;nan
21153;BME280;10734;44.792;20.482;2023-03-31T13:46:57;99150.97;;;24.83;nan
21153;BME280;10734;44.792;20.482;2023-03-31T13:49:50;99145.41;;;24.34;nan
21153;BME280;10734;44.792;20.482;2023-03-31T13:55:23;99159.22;;;24.83;nan
21153;BME280;10734;44.792;20.482;2023-03-31T13:58:08;99152.31;;;25.70;nan
21153;BME280;10734;44.792;20.482;2023-03-31T14:01:02;99155.94;;;26.38;nan
21153;BME280;10734;44.792;20.482;2023-03-31T14:06:17;99137.97;;;25.05;nan
21153;BME280;10734;44.792;20.482;2023-03-31T14:08:51;99133.50;;;25.32;nan
21153;BME280;10734;44.792;20.482;2023-03-31T14:11:28;99122.03;;;25.29;nan
21153;BME280;10734;44.792;20.482;2023-03-31T14:14:04;99122.44;;;24.69;nan
21153;BME280;10734;44.792;20.482;2023-03-31T14:16:43;99121.50;;;25.12;nan
21153;BME280;10734;44.792;20.482;2023-03-31T14:21:50;99107.88;;;25.38;nan
21153;BME280;10734;44.792;20.482;2023-03-31T14:24:28;99112.94;;;25.00;nan
21153;BME280;10734;44.792;20.482;2023-03-31T14:27:01;99099.38;;;24.42;nan
21153;BME280;10734;44.792;20.482;2023-03-31T14:37:20;99084.13;;;26.05;nan
21153;BME280;10734;44.792;20.482;2023-03-31T14:39:53;99090.19;;;25.19;nan
21153;BME280;10734;44.792;20.482;2023-03-31T14:42:22;99091.44;;;25.58;nan
21153;BME280;10734;44.792;20.482;2023-03-31T14:44:55;99076.66;;;24.96;nan
21153;BME280;10734;44.792;20.482;2023-03-31T14:47:24;99070.53;;;24.94;nan
21153;BME280;10734;44.792;20.482;2023-03-31T14:50:02;99070.00;;;24.77;nan
21153;BME280;10734;44.792;20.482;2023-03-31T14:52:32;99062.97;;;24.19;nan
21153;BME280;10734;44.792;20.482;2023-03-31T14:55:02;99067.06;;;24.29;nan
21153;BME280;10734;44.792;20.482;2023-03-31T14:57:29;99064.78;;;24.33;nan
21153;BME280;10734;44.792;20.482;2023-03-31T14:59:58;99050.31;;;24.46;nan
21153;BME280;10734;44.792;20.482;2023-03-31T15:02:36;99051.72;;;25.05;nan
21153;BME280;10734;44.792;20.482;2023-03-31T15:05:12;99042.78;;;25.37;nan
21153;BME280;10734;44.792;20.482;2023-03-31T15:07:44;99049.88;;;25.12;nan
21153;BME280;10734;44.792;20.482;2023-03-31T15:10:11;99044.53;;;25.45;nan
21153;BME280;10734;44.792;20.482;2023-03-31T15:12:42;99039.47;;;25.55;nan
21153;BME280;10734;44.792;20.482;2023-03-31T15:15:09;99036.91;;;25.54;nan
21153;BME280;10734;44.792;20.482;2023-03-31T15:17:39;99032.06;;;25.69;nan
21153;BME280;10734;44.792;20.482;2023-03-31T15:22:54;99025.53;;;24.24;nan
21153;BME280;10734;44.792;20.482;2023-03-31T15:25:25;99018.72;;;24.20;nan
21153;BME280;10734;44.792;20.482;2023-03-31T15:27:57;99014.25;;;23.33;nan
21153;BME280;10734;44.792;20.482;2023-03-31T15:30:26;99021.16;;;23.44;nan
21153;BME280;10734;44.792;20.482;2023-03-31T15:32:55;99014.88;;;23.14;nan
21153;BME280;10734;44.792;20.482;2023-03-31T15:35:33;99015.06;;;22.83;nan
21153;BME280;10734;44.792;20.482;2023-03-31T15:38:04;99009.59;;;22.83;nan
21153;BME280;10734;44.792;20.482;2023-03-31T15:40:34;99003.31;;;22.89;nan
21153;BME280;10734;44.792;20.482;2023-03-31T15:43:07;99002.00;;;22.85;nan
21153;BME280;10734;44.792;20.482;2023-03-31T15:45:46;98994.63;;;22.26;nan
21153;BME280;10734;44.792;20.482;2023-03-31T15:48:20;98986.38;;;22.26;nan
21153;BME280;10734;44.792;20.482;2023-03-31T15:50:48;98993.69;;;22.11;nan
21153;BME280;10734;44.792;20.482;2023-03-31T15:56:01;98981.44;;;21.84;nan
21153;BME280;10734;44.792;20.482;2023-03-31T15:58:44;98981.28;;;21.62;nan
21153;BME280;10734;44.792;20.482;2023-03-31T16:01:11;98980.06;;;21.42;nan
21153;BME280;10734;44.792;20.482;2023-03-31T16:03:42;98974.94;;;21.39;nan
21153;BME280;10734;44.792;20.482;2023-03-31T16:06:17;98972.09;;;21.24;nan
21153;BME280;10734;44.792;20.482;2023-03-31T16:08:56;98971.78;;;21.19;nan
21153;BME280;10734;44.792;20.482;2023-03-31T16:11:39;98959.09;;;20.95;nan
21153;BME280;10734;44.792;20.482;2023-03-31T16:14:15;98962.88;;;20.94;nan
21153;BME280;10734;44.792;20.482;2023-03-31T16:16:46;98953.81;;;20.93;nan
21153;BME280;10734;44.792;20.482;2023-03-31T16:19:17;98951.44;;;20.90;nan
21153;BME280;10734;44.792;20.482;2023-03-31T16:22:05;98956.56;;;20.85;nan
21153;BME280;10734;44.792;20.482;2023-03-31T16:24:34;98941.25;;;20.76;nan
21153;BME280;10734;44.792;20.482;2023-03-31T16:27:03;98948.28;;;20.70;nan
21153;BME280;10734;44.792;20.482;2023-03-31T16:29:36;98942.50;;;20.65;nan
21153;BME280;10734;44.792;20.482;2023-03-31T16:32:11;98941.13;;;20.61;nan
21153;BME280;10734;44.792;20.482;2023-03-31T16:35:12;98935.88;;;20.51;nan
21153;BME280;10734;44.792;20.482;2023-03-31T16:37:32;98933.00;;;20.37;nan
21153;BME280;10734;44.792;20.482;2023-03-31T16:39:59;98928.94;;;20.24;nan
21153;BME280;10734;44.792;20.482;2023-03-31T16:42:26;98919.06;;;20.15;nan
21153;BME280;10734;44.792;20.482;2023-03-31T16:44:54;98924.88;;;20.12;nan
21153;BME280;10734;44.792;20.482;2023-03-31T16:47:48;98915.69;;;20.05;34.29
21153;BME280;10734;44.792;20.482;2023-03-31T16:50:19;98916.03;;;20.02;34.09
21153;BME280;10734;44.792;20.482;2023-03-31T16:52:46;98914.66;;;19.90;34.87
21153;BME280;10734;44.792;20.482;2023-03-31T16:55:13;98908.53;;;19.79;35.33
21153;BME280;10734;44.792;20.482;2023-03-31T16:57:40;98911.28;;;19.71;35.39
21153;BME280;10734;44.792;20.482;2023-03-31T17:00:10;98895.91;;;19.62;35.42
21153;BME280;10734;44.792;20.482;2023-03-31T17:02:44;98895.22;;;19.52;35.87
21153;BME280;10734;44.792;20.482;2023-03-31T17:05:12;98900.53;;;19.45;36.19
21153;BME280;10734;44.792;20.482;2023-03-31T17:07:39;98904.25;;;19.36;36.19
21153;BME280;10734;44.792;20.482;2023-03-31T17:10:07;98909.72;;;19.28;36.46
21153;BME280;10734;44.792;20.482;2023-03-31T17:12:34;98912.28;;;19.21;36.44
21153;BME280;10734;44.792;20.482;2023-03-31T17:15:02;98912.09;;;19.14;36.92
21153;BME280;10734;44.792;20.482;2023-03-31T17:17:29;98910.03;;;19.08;36.66
21153;BME280;10734;44.792;20.482;2023-03-31T17:19:56;98907.84;;;19.04;36.90
21153;BME280;10734;44.792;20.482;2023-03-31T17:22:26;98910.38;;;18.97;36.88
21153;BME280;10734;44.792;20.482;2023-03-31T17:24:52;98909.16;;;18.91;37.06
21153;BME280;10734;44.792;20.482;2023-03-31T17:27:24;98907.47;;;18.82;37.46
21153;BME280;10734;44.792;20.482;2023-03-31T17:29:52;98910.00;;;18.76;37.47
21153;BME280;10734;44.792;20.482;2023-03-31T17:32:21;98908.63;;;18.72;37.47
21153;BME280;10734;44.792;20.482;2023-03-31T17:34:48;98913.88;;;18.65;37.76
21153;BME280;10734;44.792;20.482;2023-03-31T17:37:16;98912.31;;;18.62;37.58
21153;BME280;10734;44.792;20.482;2023-03-31T17:39:43;98910.25;;;18.56;37.75
21153;BME280;10734;44.792;20.482;2023-03-31T17:42:12;98915.88;;;18.55;37.92
21153;BME280;10734;44.792;20.482;2023-03-31T17:44:39;98917.19;;;18.51;38.08
21153;BME280;10734;44.792;20.482;2023-03-31T17:47:09;98915.81;;;18.47;38.26
21153;BME280;10734;44.792;20.482;2023-03-31T17:49:41;98921.06;;;18.40;38.76
21153;BME280;10734;44.792;20.482;2023-03-31T17:52:08;98919.88;;;18.34;39.13
21153;BME280;10734;44.792;20.482;2023-03-31T17:54:36;98914.91;;;18.30;39.08
21153;BME280;10734;44.792;20.482;2023-03-31T17:57:04;98911.28;;;18.21;39.59
21153;BME280;10734;44.792;20.482;2023-03-31T17:59:31;98911.25;;;18.13;40.18
21153;BME280;10734;44.792;20.482;2023-03-31T18:01:58;98918.22;;;18.07;40.43
21153;BME280;10734;44.792;20.482;2023-03-31T18:04:26;98911.84;;;17.99;40.54
21153;BME280;10734;44.792;20.482;2023-03-31T18:06:54;98908.75;;;17.93;40.76
21153;BME280;10734;44.792;20.482;2023-03-31T18:09:21;98903.09;;;17.87;41.04
21153;BME280;10734;44.792;20.482;2023-03-31T18:11:51;98901.88;;;17.81;40.81
21153;BME280;10734;44.792;20.482;2023-03-31T18:14:18;98906.94;;;17.76;41.26
21153;BME280;10734;44.792;20.482;2023-03-31T18:16:46;98906.53;;;17.71;41.38
